createdAt,value
2023-03-01T00:03:31.383Z,12.30
2023-03-01T00:08:37.021Z,11.97
2023-03-01T00:13:40.775Z,12.17
2023-03-01T00:18:44.384Z,11.47
2023-03-01T00:23:50.660Z,13.40
2023-03-01T00:28:54.764Z,9.93
2023-03-01T00:33:59.111Z,10.20
2023-03-01T00:39:05.303Z,13.77
2023-03-01T00:44:08.510Z,12.33
2023-03-01T00:49:14.327Z,7.50
2023-03-01T00:54:18.904Z,10.97
2023-03-01T00:59:22.221Z,10.17
2023-03-01T01:04:25.328Z,10.00
2023-03-01T01:09:29.863Z,10.73
2023-03-01T01:14:33.122Z,11.93
2023-03-01T01:19:36.350Z,10.40
2023-03-01T01:24:41.042Z,9.93
2023-03-01T01:29:44.721Z,9.83
2023-03-01T01:34:48.500Z,9.17
2023-03-01T01:39:53.231Z,8.70
2023-03-01T01:45:34.984Z,8.10
2023-03-01T01:50:40.781Z,10.10
2023-03-01T01:55:49.638Z,9.97
2023-03-01T02:00:53.629Z,12.47
2023-03-01T02:06:01.826Z,11.47
2023-03-01T02:11:07.487Z,10.60
2023-03-01T02:16:13.758Z,10.93
2023-03-01T02:21:38.095Z,10.73
2023-03-01T02:26:47.664Z,10.63
2023-03-01T02:31:55.779Z,10.53
2023-03-01T02:37:04.922Z,8.37
2023-03-01T02:42:08.921Z,9.80
2023-03-01T02:47:15.538Z,9.43
2023-03-01T02:52:35.065Z,11.07
2023-03-01T02:57:41.371Z,10.73
2023-03-01T03:02:46.708Z,12.93
2023-03-01T03:07:51.304Z,14.87
2023-03-01T03:12:56.669Z,11.33
2023-03-01T03:18:01.551Z,10.93
2023-03-01T03:23:04.916Z,14.43
2023-03-01T03:28:11.678Z,12.97
2023-03-01T03:33:16.795Z,11.90
2023-03-01T03:38:22.919Z,12.70
2023-03-01T03:43:26.290Z,12.80
2023-03-01T03:48:31.024Z,12.30
2023-03-01T03:53:34.750Z,13.43
2023-03-01T03:58:38.466Z,15.80
2023-03-01T04:03:47.635Z,9.53
2023-03-01T04:08:52.183Z,15.23
2023-03-01T04:13:56.912Z,12.53
2023-03-01T04:19:01.792Z,13.90
2023-03-01T04:24:05.596Z,10.97
2023-03-01T04:29:08.843Z,14.23
2023-03-01T04:34:15.125Z,13.07
2023-03-01T04:39:18.246Z,11.63
2023-03-01T04:44:21.456Z,12.53
2023-03-01T04:49:28.762Z,11.67
2023-03-01T04:54:31.972Z,11.20
2023-03-01T04:59:37.224Z,12.93
2023-03-01T05:04:41.891Z,10.40
2023-03-01T05:09:45.111Z,12.43
2023-03-01T05:14:48.704Z,10.23
2023-03-01T05:19:53.876Z,13.17
2023-03-01T05:24:57.062Z,12.83
2023-03-01T05:30:00.171Z,11.17
2023-03-01T05:35:05.389Z,14.17
2023-03-01T05:40:16.442Z,11.73
2023-03-01T05:45:20.715Z,12.20
2023-03-01T05:50:27.654Z,11.13
2023-03-01T05:55:32.513Z,14.47
2023-03-01T06:00:36.456Z,13.17
2023-03-01T06:05:41.609Z,17.17
2023-03-01T06:10:45.356Z,18.27
2023-03-01T06:15:48.688Z,12.50
2023-03-01T06:21:06.289Z,14.20
2023-03-01T06:26:10.408Z,16.97
2023-03-01T06:31:16.638Z,16.80
2023-03-01T06:36:23.082Z,13.20
2023-03-01T06:41:32.222Z,14.10
2023-03-01T06:46:37.633Z,14.07
2023-03-01T06:51:42.287Z,14.57
2023-03-01T06:56:45.731Z,16.87
2023-03-01T07:01:52.023Z,16.47
2023-03-01T07:06:56.976Z,16.27
2023-03-01T07:12:06.152Z,17.97
2023-03-01T07:17:20.359Z,13.50
2023-03-01T07:22:25.340Z,14.80
2023-03-01T07:27:32.311Z,14.60
2023-03-01T07:32:35.816Z,16.60
2023-03-01T07:37:40.501Z,12.23
2023-03-01T07:42:43.831Z,14.87
2023-03-01T07:47:47.037Z,11.20
2023-03-01T07:53:05.825Z,12.60
2023-03-01T07:58:09.048Z,13.07
2023-03-01T08:03:13.588Z,13.10
2023-03-01T08:08:21.485Z,14.87
2023-03-01T08:13:24.780Z,12.67
2023-03-01T08:18:27.914Z,14.80
2023-03-01T08:23:32.682Z,13.77
2023-03-01T08:28:35.946Z,12.87
2023-03-01T08:33:39.164Z,14.47
2023-03-01T08:38:43.889Z,14.47
2023-03-01T08:43:47.128Z,12.27
2023-03-01T08:48:50.416Z,17.83
2023-03-01T08:53:55.374Z,12.80
2023-03-01T08:58:59.131Z,12.77
2023-03-01T09:04:02.689Z,12.67
2023-03-01T09:09:09.002Z,15.63
2023-03-01T09:14:12.108Z,13.37
2023-03-01T09:19:15.732Z,13.47
2023-03-01T09:24:23.212Z,14.27
2023-03-01T09:29:27.058Z,16.33
2023-03-01T09:34:30.546Z,15.53
2023-03-01T09:39:35.507Z,14.60
2023-03-01T09:44:42.506Z,14.03
2023-03-01T09:49:55.871Z,15.27
2023-03-01T09:55:01.191Z,15.93
2023-03-01T10:00:18.020Z,16.70
2023-03-01T10:05:48.290Z,15.47
2023-03-01T10:10:55.331Z,15.47
2023-03-01T10:16:03.999Z,16.60
2023-03-01T10:21:17.688Z,15.07
2023-03-01T10:26:42.903Z,12.23
2023-03-01T10:31:49.321Z,13.17
2023-03-01T10:36:55.389Z,13.87
2023-03-01T10:42:03.157Z,15.00
2023-03-01T10:47:06.461Z,13.23
2023-03-01T10:52:21.079Z,14.33
2023-03-01T10:57:32.893Z,14.93
2023-03-01T11:02:37.694Z,17.00
2023-03-01T11:07:50.689Z,16.97
2023-03-01T11:13:07.504Z,17.80
2023-03-01T11:18:30.955Z,16.23
2023-03-01T11:23:42.075Z,16.87
2023-03-01T11:28:54.068Z,13.97
2023-03-01T11:34:02.044Z,16.27
2023-03-01T11:39:13.237Z,14.43
2023-03-01T11:44:23.574Z,17.50
2023-03-01T11:49:56.876Z,15.17
2023-03-01T11:55:22.885Z,16.00
2023-03-01T12:00:48.590Z,11.43
2023-03-01T12:06:14.647Z,14.50
2023-03-01T12:11:34.646Z,13.73
2023-03-01T12:16:58.700Z,12.97
2023-03-01T12:22:19.316Z,11.93
2023-03-01T12:27:48.460Z,10.60
2023-03-01T12:33:05.992Z,10.20
2023-03-01T12:38:27.458Z,10.10
2023-03-01T12:43:47.404Z,10.90
2023-03-01T12:49:04.581Z,12.77
2023-03-01T12:54:16.638Z,14.50
2023-03-01T12:59:25.241Z,13.07
2023-03-01T13:04:49.289Z,13.33
2023-03-01T13:10:02.564Z,11.70
2023-03-01T13:15:26.500Z,9.67
2023-03-01T13:20:36.608Z,16.47
2023-03-01T13:26:05.301Z,12.17
2023-03-01T13:31:09.934Z,14.50
2023-03-01T13:36:56.244Z,10.33
2023-03-01T13:42:00.993Z,12.90
2023-03-01T13:47:18.526Z,10.17
2023-03-01T13:52:43.055Z,11.07
2023-03-01T13:57:54.937Z,8.40
2023-03-01T14:03:07.243Z,13.13
2023-03-01T14:08:24.109Z,7.60
2023-03-01T14:13:44.244Z,8.00
2023-03-01T14:18:55.878Z,9.43
2023-03-01T14:24:01.026Z,7.43
2023-03-01T14:29:04.293Z,7.50
2023-03-01T14:34:07.940Z,7.67
2023-03-01T14:39:22.177Z,8.17
2023-03-01T14:44:26.719Z,8.23
2023-03-01T14:49:33.341Z,7.30
2023-03-01T14:54:43.471Z,8.60
2023-03-01T14:59:48.972Z,10.40
2023-03-01T15:04:57.809Z,9.33
2023-03-01T15:10:03.733Z,7.80
2023-03-01T15:15:36.036Z,11.90
2023-03-01T15:20:39.275Z,8.33
2023-03-01T15:25:47.479Z,6.57
2023-03-01T15:30:57.431Z,7.53
2023-03-01T15:36:02.373Z,8.83
2023-03-01T15:41:24.478Z,7.50
2023-03-01T15:46:33.485Z,10.63
2023-03-01T15:51:38.837Z,8.60
2023-03-01T15:56:44.828Z,6.57
2023-03-01T16:01:50.049Z,6.50
2023-03-01T16:06:56.411Z,6.33
2023-03-01T16:12:01.350Z,7.60
2023-03-01T16:17:05.145Z,8.10
2023-03-01T16:22:10.382Z,6.90
2023-03-01T16:27:16.645Z,8.27
2023-03-01T16:32:19.990Z,8.60
2023-03-01T16:37:23.416Z,11.17
2023-03-01T16:42:28.149Z,10.10
2023-03-01T16:47:32.325Z,9.57
2023-03-01T16:52:36.112Z,13.43
2023-03-01T16:57:41.604Z,9.80
2023-03-01T17:02:45.272Z,8.73
2023-03-01T17:07:48.600Z,9.43
2023-03-01T17:12:53.339Z,7.23
2023-03-01T17:17:56.407Z,8.97
2023-03-01T17:22:59.876Z,7.03
2023-03-01T17:28:04.507Z,8.43
2023-03-01T17:33:07.708Z,10.67
2023-03-01T17:38:10.828Z,6.93
2023-03-01T17:43:18.523Z,7.53
2023-03-01T17:48:21.886Z,9.47
2023-03-01T17:53:25.101Z,11.00
2023-03-01T17:58:29.807Z,9.40
2023-03-01T18:03:33.036Z,7.37
2023-03-01T18:08:36.182Z,7.27
2023-03-01T18:13:40.915Z,8.03
2023-03-01T18:18:45.232Z,6.90
2023-03-01T18:23:48.824Z,10.20
2023-03-01T18:28:53.980Z,18.17
2023-03-01T18:33:57.154Z,10.43
2023-03-01T18:39:00.245Z,9.90
2023-03-01T18:44:06.640Z,9.03
2023-03-01T18:49:10.050Z,7.20
2023-03-01T18:54:21.916Z,7.97
2023-03-01T18:59:28.056Z,7.53
2023-03-01T19:04:33.869Z,7.63
2023-03-01T19:09:41.494Z,9.47
2023-03-01T19:14:46.373Z,8.57
2023-03-01T19:19:51.697Z,7.47
2023-03-01T19:24:55.046Z,9.73
2023-03-01T19:30:01.878Z,7.47
2023-03-01T19:35:05.706Z,7.37
2023-03-01T19:40:10.831Z,9.20
2023-03-01T19:45:20.076Z,8.70
2023-03-01T19:50:25.800Z,6.53
2023-03-01T19:55:38.372Z,8.47
2023-03-01T20:00:47.331Z,8.37
2023-03-01T20:05:50.888Z,6.83
2023-03-01T20:10:54.550Z,7.27
2023-03-01T20:15:59.586Z,7.40
2023-03-01T20:21:09.315Z,6.80
2023-03-01T20:26:23.382Z,6.23
2023-03-01T20:31:29.858Z,8.07
2023-03-01T20:36:34.282Z,10.47
2023-03-01T20:41:39.621Z,7.87
2023-03-01T20:46:44.804Z,6.17
2023-03-01T20:51:52.633Z,7.50
2023-03-01T20:56:55.784Z,8.70
2023-03-01T21:02:00.621Z,7.93
2023-03-01T21:07:04.020Z,8.33
2023-03-01T21:12:07.129Z,8.47
2023-03-01T21:17:13.447Z,8.13
2023-03-01T21:22:17.613Z,6.33
2023-03-01T21:27:21.483Z,8.87
2023-03-01T21:32:26.752Z,7.23
2023-03-01T21:37:30.139Z,8.73
2023-03-01T21:42:35.145Z,8.80
2023-03-01T21:47:41.062Z,7.73
2023-03-01T21:52:44.278Z,9.10
2023-03-01T21:57:47.477Z,11.23
2023-03-01T22:02:52.050Z,9.23
2023-03-01T22:07:55.832Z,7.30
2023-03-01T22:13:00.391Z,8.27
2023-03-01T22:18:05.257Z,15.60
2023-03-01T22:23:09.801Z,14.87
2023-03-01T22:28:12.949Z,10.90
2023-03-01T22:33:17.609Z,9.57
2023-03-01T22:38:20.756Z,8.23
2023-03-01T22:43:23.974Z,7.67
2023-03-01T22:48:28.679Z,8.83
2023-03-01T22:53:31.914Z,8.53
2023-03-01T22:58:35.008Z,9.20
2023-03-01T23:03:39.572Z,8.53
2023-03-01T23:08:43.762Z,9.20
2023-03-01T23:13:46.910Z,9.87
2023-03-01T23:18:51.616Z,10.80
2023-03-01T23:23:56.199Z,14.63
2023-03-01T23:28:59.528Z,10.07
2023-03-01T23:34:04.578Z,12.40
2023-03-01T23:39:08.717Z,9.83
2023-03-01T23:44:16.164Z,12.13
2023-03-01T23:49:22.370Z,10.20
2023-03-01T23:54:26.788Z,15.17
2023-03-01T23:59:29.904Z,11.83
